Data for 09/04/2016

Time Sea-Level Adjusted Pressure Absolute Pressure Temperature Relative Humidity Dew Point   
(mb) (inHg) (mb) (inHg) (C) (F) (%) (C) (F)
00:05 1017 30.03 846 24.98 9.8 49.7 87 7.7 45.8
00:10 1017 30.03 846 24.98 9.7 49.4 85 7.4 45.2
00:15 1017 30.03 846 24.98 9.6 49.3 86 7.4 45.3
00:20 1017 30.03 846 24.98 9.7 49.4 86 7.5 45.5
00:25 1017 30.03 846 24.98 9.6 49.3 86 7.5 45.4
00:30 1017 30.03 846 24.98 9.6 49.2 86 7.3 45.1
00:35 1017 30.03 846 24.98 9.5 49.2 86 7.4 45.3
00:40 1017 30.03 846 24.98 9.5 49.2 87 7.5 45.4
00:45 1017 30.03 846 24.98 9.5 49 87 7.3 45.2
00:50 1017 30.03 846 24.98 9.4 48.9 87 7.4 45.4
00:55 1017 30.03 846 24.98 9.4 48.9 87 7.4 45.3
01:00 1017 30.03 846 24.98 9.3 48.8 88 7.4 45.4
01:05 1017 30.03 846 24.98 9.3 48.7 88 7.3 45.2
01:10 1016 30 846 24.98 9.3 48.8 88 7.4 45.4
01:15 1016 30 845 24.95 9.2 48.6 88 7.4 45.3
01:20 1016 30 846 24.98 9.1 48.3 88 7.2 45
01:25 1016 30 845 24.95 9.1 48.3 89 7.3 45.2
01:30 1016 30 845 24.95 9.2 48.5 88 7.3 45.2
01:35 1016 30 845 24.95 9.3 48.7 88 7.4 45.4
01:40 1016 30 845 24.95 9.3 48.7 87 7.3 45.2
01:45 1016 30 845 24.95 9.3 48.7 88 7.3 45.2
01:50 1016 30 845 24.95 9.3 48.7 87 7.2 45
01:55 1016 30 846 24.98 9.3 48.7 87 7.2 45
02:00 1016 30 846 24.98 9.3 48.7 86 7.1 44.8
02:05 1016 30 846 24.98 9.2 48.6 87 7.2 44.9
02:10 1016 30 846 24.98 9.3 48.7 87 7.3 45.1
02:15 1016 30 845 24.95 9.3 48.7 88 7.3 45.2
02:20 1016 30 845 24.95 9.2 48.6 88 7.3 45.2
02:25 1016 30 845 24.95 9.1 48.4 88 7.2 45
02:30 1016 30 845 24.95 9 48.3 88 7.2 44.9
02:35 1016 30 845 24.95 8.9 48 88 7.1 44.7
02:40 1016 30 845 24.95 8.9 48 89 7.2 44.9
02:45 1016 30 845 24.95 8.9 48 89 7.2 44.9
02:50 1016 30 845 24.95 8.9 48 89 7.2 44.9
02:55 1016 30 845 24.95 8.9 47.9 89 7.1 44.8
03:00 1016 30 845 24.95 8.8 47.8 89 7.2 44.9
03:05 1016 30 845 24.95 8.8 47.9 89 7.2 44.9
03:10 1016 30 845 24.95 8.8 47.8 90 7.2 44.9
03:15 1016 30 845 24.95 8.8 47.8 90 7.2 44.9
03:20 1016 30 845 24.95 8.7 47.6 90 7.1 44.8
03:25 1016 30 845 24.95 8.6 47.5 90 7 44.7
03:30 1016 30 845 24.95 8.5 47.4 90 6.9 44.5
03:35 1016 30 845 24.95 8.4 47.1 90 6.8 44.2
03:40 1016 30 845 24.95 8.2 46.8 90 6.7 44
03:45 1016 30 845 24.95 8.1 46.5 90 6.5 43.7
03:50 1016 30 845 24.95 8.1 46.5 90 6.5 43.7
03:55 1016 30 845 24.95 8.2 46.7 90 6.7 44
04:00 1016 30 845 24.95 8.2 46.7 89 6.6 43.8
04:05 1016 30 845 24.95 8.1 46.5 89 6.3 43.3
04:10 1016 30 845 24.95 8.1 46.5 89 6.4 43.6
04:15 1016 30 845 24.95 8.2 46.7 90 6.6 44
04:20 1016 30 845 24.95 8.3 46.9 89 6.6 43.9
04:25 1016 30 845 24.95 8.2 46.8 90 6.7 44.1
04:30 1016 30 845 24.95 8.3 47 90 6.8 44.3
04:35 1016 30 845 24.95 8.4 47.2 90 6.9 44.4
04:40 1015 29.97 845 24.95 8.4 47.1 90 6.8 44.3
04:45 1015 29.97 845 24.95 8.2 46.7 85 5.9 42.6
04:50 1015 29.97 845 24.95 8.1 46.5 82 5.1 41.2
04:55 1015 29.97 844 24.92 8 46.4 81 4.9 40.9
05:00 1015 29.97 844 24.92 8 46.4 81 5 41
05:05 1015 29.97 844 24.92 8 46.3 79 4.6 40.3
05:10 1015 29.97 844 24.92 8 46.4 79 4.6 40.3
05:15 1015 29.97 844 24.92 8 46.4 78 4.4 40
05:20 1015 29.97 844 24.92 8 46.3 77 4.2 39.6
05:25 1015 29.97 844 24.92 8 46.4 78 4.4 39.9
05:30 1015 29.97 844 24.92 7.9 46.1 80 4.6 40.3
05:35 1015 29.97 844 24.92 7.8 46 80 4.5 40.2
05:40 1015 29.97 844 24.92 7.7 45.9 82 4.9 40.8
05:45 1015 29.97 844 24.92 7.8 46 81 4.8 40.7
05:50 1015 29.97 844 24.92 7.9 46.1 82 5 41.1
05:55 1015 29.97 844 24.92 7.8 46.1 83 5.2 41.3
06:00 1015 29.97 844 24.92 7.8 46 86 5.5 41.9
06:05 1015 29.97 845 24.95 7.8 46 87 5.7 42.2
06:10 1015 29.97 845 24.95 7.8 46 83 5.1 41.1
06:15 1015 29.97 845 24.95 7.9 46.3 82 5 41
06:20 1015 29.97 845 24.95 8 46.5 86 5.9 42.6
06:25 1015 29.97 845 24.95 8 46.3 82 5.1 41.2
06:30 1015 29.97 845 24.95 8.2 46.7 87 6.2 43.1
06:35 1015 29.97 845 24.95 8.1 46.6 87 6.1 43
06:40 1015 29.97 844 24.92 8 46.4 85 5.6 42.1
06:45 1015 29.97 844 24.92 8.1 46.5 89 6.4 43.6
06:50 1015 29.97 844 24.92 8 46.3 91 6.6 43.8
06:55 1015 29.97 845 24.95 7.9 46.3 91 6.6 43.9
07:00 1015 29.97 845 24.95 7.9 46.3 91 6.6 43.9
07:05 1015 29.97 845 24.95 7.9 46.3 91 6.5 43.8
07:10 1015 29.97 845 24.95 7.7 45.9 92 6.4 43.6
07:15 1015 29.97 845 24.95 7.9 46.1 92 6.6 43.9
07:20 1015 29.97 845 24.95 8 46.4 91 6.6 43.9
07:25 1015 29.97 845 24.95 8.1 46.6 91 6.7 44
07:30 1015 29.97 845 24.95 8.2 46.8 90 6.6 43.9
07:35 1015 29.97 844 24.92 8.2 46.8 90 6.7 44.1
07:40 1015 29.97 844 24.92 8.3 46.9 90 6.8 44.2
07:45 1015 29.97 845 24.95 8.4 47.1 90 6.8 44.2
07:50 1015 29.97 845 24.95 8.4 47.2 89 6.7 44.1
07:55 1015 29.97 844 24.92 8.5 47.2 88 6.6 43.8
08:00 1015 29.97 844 24.92 8.5 47.2 88 6.6 43.8
08:05 1015 29.97 844 24.92 8.4 47.2 88 6.5 43.7
08:10 1015 29.97 845 24.95 8.4 47 88 6.5 43.7
08:15 1015 29.97 845 24.95 8.4 47 88 6.4 43.5
08:20 1015 29.97 845 24.95 8.3 46.9 86 6.1 42.9
08:25 1015 29.97 845 24.95 8.1 46.6 86 6 42.8
08:30 1015 29.97 845 24.95 8.1 46.5 87 6.1 43
08:35 1015 29.97 845 24.95 8.1 46.6 88 6.3 43.3
08:40 1015 29.97 845 24.95 8.2 46.7 87 6.2 43.1
08:45 1015 29.97 845 24.95 8.2 46.7 88 6.3 43.4
08:50 1015 29.97 845 24.95 8.2 46.7 87 6.1 43.1
08:55 1015 29.97 845 24.95 8.2 46.7 87 6.1 43
09:00 1015 29.97 845 24.95 8.2 46.7 87 6.1 43
09:05 1015 29.97 845 24.95 8.2 46.8 87 6.2 43.1
09:10 1015 29.97 845 24.95 8.3 46.9 87 6.2 43.2
09:15 1015 29.97 845 24.95 8.2 46.7 86 5.9 42.7
09:20 1015 29.97 845 24.95 8.1 46.6 86 5.9 42.6
09:25 1015 29.97 845 24.95 8.1 46.6 86 5.9 42.6
09:30 1015 29.97 845 24.95 8.1 46.6 87 6.2 43.1
09:35 1015 29.97 845 24.95 8.2 46.7 88 6.3 43.3
09:40 1015 29.97 845 24.95 8.2 46.7 86 6 42.8
09:45 1015 29.97 845 24.95 8.2 46.8 87 6.2 43.1
09:50 1015 29.97 845 24.95 8.3 46.9 87 6.3 43.3
09:55 1015 29.97 844 24.92 8.3 46.9 87 6.2 43.2
10:00 1015 29.97 844 24.92 8.2 46.8 87 6.2 43.1
10:05 1015 29.97 844 24.92 8.2 46.7 88 6.3 43.3
10:10 1015 29.97 844 24.92 8.2 46.7 88 6.3 43.4
10:15 1015 29.97 844 24.92 8.1 46.6 88 6.3 43.3
10:20 1015 29.97 844 24.92 8.2 46.7 89 6.5 43.6
10:25 1015 29.97 844 24.92 8.2 46.7 89 6.4 43.6
10:30 1015 29.97 844 24.92 8.2 46.7 89 6.4 43.6
10:35 1015 29.97 844 24.92 8.1 46.6 89 6.3 43.4
10:40 1015 29.97 845 24.95 8 46.4 89 6.3 43.4
10:45 1015 29.97 845 24.95 8 46.3 89 6.3 43.3
10:50 1015 29.97 844 24.92 7.9 46.2 89 6.3 43.3
10:55 1015 29.97 844 24.92 7.9 46.2 90 6.3 43.4
11:00 1015 29.97 844 24.92 7.9 46.3 90 6.4 43.5
11:05 1015 29.97 844 24.92 8 46.5 90 6.5 43.7
11:10 1015 29.97 844 24.92 8 46.4 90 6.5 43.7
11:15 1015 29.97 844 24.92 8 46.4 90 6.5 43.7
11:20 1015 29.97 844 24.92 8.1 46.6 90 6.5 43.7
11:25 1015 29.97 844 24.92 8.2 46.7 89 6.5 43.7
11:30 1015 29.97 844 24.92 8.1 46.7 89 6.4 43.5
11:35 1015 29.97 844 24.92 8 46.5 89 6.4 43.5
11:40 1015 29.97 844 24.92 8 46.5 90 6.5 43.7
11:45 1015 29.97 844 24.92 8.3 46.9 91 6.9 44.3
11:50 1015 29.97 844 24.92 8.5 47.3 89 6.8 44.2
11:55 1015 29.97 844 24.92 8.5 47.2 89 6.7 44
12:00 1015 29.97 844 24.92 8.6 47.4 88 6.7 44.1
12:05 1015 29.97 844 24.92 8.6 47.6 88 6.8 44.2
12:10 1014 29.94 844 24.92 8.8 47.8 88 7 44.6
12:15 1014 29.94 844 24.92 8.7 47.7 89 7 44.6
12:20 1014 29.94 844 24.92 8.6 47.5 90 7.1 44.8
12:25 1014 29.94 843 24.89 8.7 47.7 89 7.1 44.7
12:30 1014 29.94 843 24.89 8.6 47.4 90 7 44.6
12:35 1014 29.94 843 24.89 8.5 47.2 90 7 44.6
12:40 1014 29.94 843 24.89 8.5 47.3 90 6.9 44.5
12:45 1014 29.94 843 24.89 8.5 47.2 90 6.9 44.3
12:50 1014 29.94 843 24.89 8.4 47.2 89 6.7 44
12:55 1014 29.94 843 24.89 8.5 47.3 89 6.8 44.2
13:00 1014 29.94 843 24.89 8.5 47.3 90 6.9 44.5
13:05 1014 29.94 843 24.89 8.5 47.3 90 7 44.5
13:10 1014 29.94 843 24.89 8.4 47.2 90 6.9 44.5
13:15 1014 29.94 843 24.89 8.5 47.2 91 7 44.6
13:20 1014 29.94 844 24.92 8.4 47.1 90 6.8 44.3
13:25 1014 29.94 844 24.92 8.4 47.1 90 6.8 44.3
13:30 1014 29.94 844 24.92 8.4 47.1 90 6.9 44.4
13:35 1015 29.97 844 24.92 8.3 46.9 90 6.8 44.2
13:40 1015 29.97 844 24.92 8.2 46.7 90 6.7 44.1
13:45 1014 29.94 844 24.92 8 46.5 90 6.6 43.8
13:50 1014 29.94 844 24.92 8.3 46.9 91 6.9 44.4
13:55 1014 29.94 843 24.89 8.5 47.4 91 7.2 44.9
14:00 1014 29.94 843 24.89 8.4 47.2 91 7 44.6
14:05 1014 29.94 843 24.89 8.4 47.1 91 7.1 44.8
14:10 1014 29.94 844 24.92 8.5 47.3 91 7.1 44.8
14:15 1015 29.97 844 24.92 8.5 47.2 90 7 44.6
14:20 1015 29.97 844 24.92 8.5 47.3 90 7 44.7
14:25 1014 29.94 844 24.92 8.3 47 90 6.8 44.3
14:30 1014 29.94 844 24.92 8.3 46.9 91 6.9 44.5
14:35 1014 29.94 844 24.92 8.4 47.1 91 7 44.5
14:40 1015 29.97 844 24.92 8.2 46.8 90 6.7 44.1
14:45 1015 29.97 844 24.92 8.3 46.9 91 6.9 44.4
14:50 1014 29.94 844 24.92 8.3 47 90 6.8 44.2
14:55 1015 29.97 844 24.92 8.2 46.7 90 6.7 44.1
15:00 1015 29.97 844 24.92 8.2 46.8 90 6.8 44.2
15:05 1014 29.94 844 24.92 8.4 47 89 6.7 44
15:10 1014 29.94 844 24.92 8.4 47.1 90 6.9 44.4
15:15 1014 29.94 843 24.89 8.3 47 90 6.9 44.4
15:20 1014 29.94 844 24.92 8.3 47 91 6.9 44.5
15:25 1014 29.94 843 24.89 8.4 47 91 6.9 44.4
15:30 1014 29.94 843 24.89 8.5 47.3 91 7.1 44.8
15:35 1014 29.94 843 24.89 8.7 47.6 89 7 44.6
15:40 1014 29.94 843 24.89 8.7 47.6 87 6.7 44.1
15:45 1014 29.94 843 24.89 8.7 47.6 88 6.8 44.3
15:50 1014 29.94 843 24.89 8.9 47.9 87 6.8 44.3
15:55 1014 29.94 843 24.89 8.9 48 87 6.8 44.3
16:00 1014 29.94 843 24.89 8.9 48.1 86 6.7 44
16:05 1014 29.94 844 24.92 8.7 47.7 86 6.5 43.6
16:10 1014 29.94 844 24.92 8.6 47.4 87 6.6 43.9
16:15 1014 29.94 844 24.92 8.5 47.2 88 6.6 43.8
16:20 1014 29.94 844 24.92 8.4 47.2 88 6.6 43.9
16:25 1014 29.94 843 24.89 8.4 47 88 6.6 43.8
16:30 1014 29.94 843 24.89 8.3 46.9 88 6.5 43.6
16:35 1014 29.94 844 24.92 8.1 46.6 89 6.4 43.6
16:40 1014 29.94 844 24.92 8 46.4 89 6.3 43.3
16:45 1014 29.94 844 24.92 7.9 46.3 89 6.2 43.2
16:50 1014 29.94 844 24.92 7.9 46.3 89 6.3 43.3
16:55 1015 29.97 844 24.92 8 46.4 90 6.4 43.5
17:00 1015 29.97 844 24.92 8 46.5 90 6.5 43.7
17:05 1015 29.97 844 24.92 8 46.4 90 6.5 43.7
17:10 1015 29.97 844 24.92 7.9 46.1 90 6.3 43.4
17:15 1014 29.94 844 24.92 7.7 45.9 90 6.2 43.2
17:20 1014 29.94 844 24.92 7.7 45.8 91 6.2 43.2
17:25 1014 29.94 844 24.92 7.7 45.8 91 6.3 43.3
17:30 1014 29.94 844 24.92 7.6 45.7 90 6.2 43.1
17:35 1015 29.97 844 24.92 7.6 45.6 90 6.1 42.9
17:40 1015 29.97 844 24.92 7.5 45.5 90 6 42.9
17:45 1015 29.97 844 24.92 7.5 45.4 90 6 42.8
17:50 1015 29.97 844 24.92 7.5 45.6 90 6 42.8
17:55 1015 29.97 844 24.92 7.6 45.6 90 6 42.9
18:00 1015 29.97 844 24.92 7.6 45.6 91 6.1 43
18:05 1015 29.97 844 24.92 7.7 45.8 90 6.2 43.1
18:10 1015 29.97 844 24.92 7.7 45.8 90 6.2 43.1
18:15 1015 29.97 844 24.92 7.6 45.6 89 5.8 42.5
18:20 1015 29.97 844 24.92 7.4 45.4 88 5.7 42.2
18:25 1015 29.97 844 24.92 7.4 45.3 88 5.5 41.8
18:30 1015 29.97 844 24.92 7.3 45.1 89 5.6 42
18:35 1015 29.97 844 24.92 7.3 45.1 89 5.6 42.1
18:40 1015 29.97 844 24.92 7.2 44.9 90 5.6 42.1
18:45 1015 29.97 844 24.92 7.1 44.8 91 5.7 42.2
18:50 1015 29.97 844 24.92 7.1 44.7 90 5.5 41.9
18:55 1015 29.97 844 24.92 7 44.6 91 5.5 42
19:00 1015 29.97 844 24.92 7 44.7 90 5.6 42
19:05 1015 29.97 844 24.92 7 44.6 91 5.6 42
19:10 1015 29.97 844 24.92 7 44.5 91 5.6 42
19:15 1015 29.97 844 24.92 7 44.6 91 5.6 42.2
19:20 1015 29.97 844 24.92 7 44.7 91 5.6 42.1
19:25 1015 29.97 844 24.92 7 44.6 91 5.6 42
19:30 1015 29.97 844 24.92 6.9 44.5 90 5.4 41.7
19:35 1015 29.97 844 24.92 6.9 44.4 90 5.4 41.7
19:40 1015 29.97 844 24.92 6.9 44.4 90 5.4 41.7
19:45 1015 29.97 844 24.92 6.8 44.3 90 5.3 41.5
19:50 1015 29.97 844 24.92 6.8 44.2 89 5.2 41.3
19:55 1015 29.97 844 24.92 6.8 44.2 90 5.2 41.4
20:00 1015 29.97 844 24.92 6.6 43.9 91 5.2 41.4
20:05 1015 29.97 844 24.92 6.5 43.8 92 5.3 41.5
20:10 1015 29.97 844 24.92 6.6 43.9 91 5.3 41.5
20:15 1015 29.97 844 24.92 6.6 44 92 5.4 41.7
20:20 1015 29.97 844 24.92 6.7 44 92 5.4 41.8
20:25 1015 29.97 844 24.92 6.7 44 92 5.4 41.7
20:30 1015 29.97 844 24.92 6.6 43.9 92 5.3 41.6
20:35 1015 29.97 844 24.92 6.5 43.6 91 5.1 41.2
20:40 1015 29.97 844 24.92 6.4 43.6 91 5.1 41.2
20:45 1015 29.97 844 24.92 6.4 43.6 91 5 41.1
20:50 1015 29.97 844 24.92 6.5 43.6 91 5.1 41.1
20:55 1015 29.97 844 24.92 6.5 43.7 91 5.1 41.3
21:00 1015 29.97 844 24.92 6.5 43.7 91 5.1 41.2
21:05 1015 29.97 844 24.92 6.4 43.6 91 5.1 41.1
21:10 1015 29.97 844 24.92 6.4 43.6 91 5.1 41.2
21:15 1015 29.97 844 24.92 6.4 43.6 91 5.1 41.3
21:20 1015 29.97 844 24.92 6.5 43.6 92 5.2 41.3
21:25 1015 29.97 844 24.92 6.5 43.8 91 5.2 41.4
21:30 1015 29.97 844 24.92 6.5 43.7 91 5.2 41.3
21:35 1015 29.97 844 24.92 6.6 44 91 5.3 41.5
21:40 1015 29.97 844 24.92 6.8 44.2 91 5.4 41.7
21:45 1015 29.97 844 24.92 6.7 44 90 5.2 41.3
21:50 1015 29.97 844 24.92 6.6 43.8 90 5.1 41.1
21:55 1015 29.97 844 24.92 6.6 43.8 90 5 41
22:00 1015 29.97 844 24.92 6.5 43.8 90 5 40.9
22:05 1015 29.97 844 24.92 6.5 43.8 90 5 41
22:10 1015 29.97 844 24.92 6.6 43.8 90 5 41.1
22:15 1015 29.97 844 24.92 6.5 43.8 90 5 41.1
22:20 1015 29.97 844 24.92 6.6 43.8 90 5.1 41.2
22:25 1015 29.97 844 24.92 6.5 43.8 91 5.1 41.2
22:30 1015 29.97 844 24.92 6.5 43.8 91 5.1 41.2
22:35 1015 29.97 844 24.92 6.5 43.7 91 5.1 41.2
22:40 1015 29.97 844 24.92 6.5 43.6 90 5 41
22:45 1015 29.97 844 24.92 6.5 43.7 90 5 41
22:50 1015 29.97 844 24.92 6.5 43.7 90 5 41
22:55 1015 29.97 844 24.92 6.5 43.6 90 5 41
23:00 1015 29.97 844 24.92 6.5 43.6 90 5 40.9
23:05 1015 29.97 844 24.92 6.5 43.6 90 5 41
23:10 1015 29.97 844 24.92 6.5 43.6 90 5 41
23:15 1015 29.97 844 24.92 6.5 43.6 90 5 40.9
23:20 1015 29.97 844 24.92 6.5 43.6 90 5 41
23:25 1015 29.97 844 24.92 6.5 43.6 91 5 41.1
23:30 1014 29.94 844 24.92 6.5 43.6 90 5 40.9
23:35 1014 29.94 844 24.92 6.4 43.4 89 4.7 40.5
23:40 1014 29.94 844 24.92 6.4 43.4 90 4.8 40.6
23:45 1014 29.94 844 24.92 6.4 43.5 90 4.9 40.8
23:50 1014 29.94 844 24.92 6.4 43.5 90 4.8 40.7
23:55 1014 29.94 844 24.92 6.4 43.6 90 4.9 40.8
24:00 1015 29.97 844 24.92 6.4 43.6 89 4.8 40.7